sensor_id;sensor_type;location;lat;lon;timestamp;P1;durP1;ratioP1;P2;durP2;ratioP2
46751;SDS011;32497;48.936;9.270;2022-11-12T00:01:41;5.77;;;1.53;;
46751;SDS011;32497;48.936;9.270;2022-11-12T00:07:02;3.03;;;1.30;;
46751;SDS011;32497;48.936;9.270;2022-11-12T00:12:21;3.60;;;1.73;;
46751;SDS011;32497;48.936;9.270;2022-11-12T00:17:41;2.90;;;1.60;;
46751;SDS011;32497;48.936;9.270;2022-11-12T00:23:02;1.60;;;1.07;;
46751;SDS011;32497;48.936;9.270;2022-11-12T00:28:22;3.47;;;1.37;;
46751;SDS011;32497;48.936;9.270;2022-11-12T00:33:41;5.60;;;1.67;;
46751;SDS011;32497;48.936;9.270;2022-11-12T00:39:03;5.73;;;1.63;;
46751;SDS011;32497;48.936;9.270;2022-11-12T00:44:23;5.13;;;1.83;;
46751;SDS011;32497;48.936;9.270;2022-11-12T00:49:43;2.33;;;1.47;;
46751;SDS011;32497;48.936;9.270;2022-11-12T00:55:03;1.50;;;1.03;;
46751;SDS011;32497;48.936;9.270;2022-11-12T01:00:24;1.57;;;1.23;;
46751;SDS011;32497;48.936;9.270;2022-11-12T01:05:43;3.77;;;1.63;;
46751;SDS011;32497;48.936;9.270;2022-11-12T01:11:05;3.03;;;1.00;;
46751;SDS011;32497;48.936;9.270;2022-11-12T01:16:27;3.77;;;1.67;;
46751;SDS011;32497;48.936;9.270;2022-11-12T01:21:47;2.43;;;1.37;;
46751;SDS011;32497;48.936;9.270;2022-11-12T01:27:08;2.20;;;1.00;;
46751;SDS011;32497;48.936;9.270;2022-11-12T01:32:28;3.30;;;1.20;;
46751;SDS011;32497;48.936;9.270;2022-11-12T01:37:48;4.07;;;1.47;;
46751;SDS011;32497;48.936;9.270;2022-11-12T01:43:09;3.40;;;1.43;;
46751;SDS011;32497;48.936;9.270;2022-11-12T01:48:31;1.63;;;1.17;;
46751;SDS011;32497;48.936;9.270;2022-11-12T01:53:56;1.50;;;1.00;;
46751;SDS011;32497;48.936;9.270;2022-11-12T01:59:21;1.27;;;1.00;;
46751;SDS011;32497;48.936;9.270;2022-11-12T02:04:45;2.13;;;1.20;;
46751;SDS011;32497;48.936;9.270;2022-11-12T02:10:07;1.73;;;1.00;;
46751;SDS011;32497;48.936;9.270;2022-11-12T02:15:29;3.20;;;1.30;;
46751;SDS011;32497;48.936;9.270;2022-11-12T02:20:52;4.17;;;1.17;;
46751;SDS011;32497;48.936;9.270;2022-11-12T02:26:15;3.27;;;1.20;;
46751;SDS011;32497;48.936;9.270;2022-11-12T02:31:34;2.30;;;1.40;;
46751;SDS011;32497;48.936;9.270;2022-11-12T02:36:54;2.20;;;1.67;;
46751;SDS011;32497;48.936;9.270;2022-11-12T02:42:15;2.07;;;0.70;;
46751;SDS011;32497;48.936;9.270;2022-11-12T02:47:35;3.83;;;1.37;;
46751;SDS011;32497;48.936;9.270;2022-11-12T02:52:54;3.83;;;1.37;;
46751;SDS011;32497;48.936;9.270;2022-11-12T02:58:15;1.27;;;0.80;;
46751;SDS011;32497;48.936;9.270;2022-11-12T03:03:34;1.60;;;0.70;;
46751;SDS011;32497;48.936;9.270;2022-11-12T03:08:54;3.03;;;1.00;;
46751;SDS011;32497;48.936;9.270;2022-11-12T03:14:14;2.20;;;1.13;;
46751;SDS011;32497;48.936;9.270;2022-11-12T03:19:34;2.07;;;1.00;;
46751;SDS011;32497;48.936;9.270;2022-11-12T03:24:53;2.87;;;1.20;;
46751;SDS011;32497;48.936;9.270;2022-11-12T03:30:14;0.93;;;0.80;;
46751;SDS011;32497;48.936;9.270;2022-11-12T03:35:33;2.50;;;0.93;;
46751;SDS011;32497;48.936;9.270;2022-11-12T03:40:53;1.63;;;1.03;;
46751;SDS011;32497;48.936;9.270;2022-11-12T03:46:14;1.40;;;0.90;;
46751;SDS011;32497;48.936;9.270;2022-11-12T03:51:34;1.87;;;1.23;;
46751;SDS011;32497;48.936;9.270;2022-11-12T03:56:53;1.70;;;1.10;;
46751;SDS011;32497;48.936;9.270;2022-11-12T04:02:14;2.00;;;1.10;;
46751;SDS011;32497;48.936;9.270;2022-11-12T04:07:34;1.97;;;0.83;;
46751;SDS011;32497;48.936;9.270;2022-11-12T04:12:53;1.23;;;1.07;;
46751;SDS011;32497;48.936;9.270;2022-11-12T04:18:14;2.60;;;1.17;;
46751;SDS011;32497;48.936;9.270;2022-11-12T04:23:34;4.03;;;1.10;;
46751;SDS011;32497;48.936;9.270;2022-11-12T04:28:53;1.87;;;1.10;;
46751;SDS011;32497;48.936;9.270;2022-11-12T04:34:14;1.13;;;0.80;;
46751;SDS011;32497;48.936;9.270;2022-11-12T04:39:33;2.13;;;1.30;;
46751;SDS011;32497;48.936;9.270;2022-11-12T04:44:53;2.53;;;1.37;;
46751;SDS011;32497;48.936;9.270;2022-11-12T04:50:15;3.00;;;1.40;;
46751;SDS011;32497;48.936;9.270;2022-11-12T04:55:36;4.37;;;1.27;;
46751;SDS011;32497;48.936;9.270;2022-11-12T05:00:56;1.30;;;0.77;;
46751;SDS011;32497;48.936;9.270;2022-11-12T05:06:18;3.70;;;1.50;;
46751;SDS011;32497;48.936;9.270;2022-11-12T05:11:37;3.97;;;1.40;;
46751;SDS011;32497;48.936;9.270;2022-11-12T05:16:57;1.57;;;0.90;;
46751;SDS011;32497;48.936;9.270;2022-11-12T05:22:18;2.23;;;1.23;;
46751;SDS011;32497;48.936;9.270;2022-11-12T05:27:38;1.97;;;1.43;;
46751;SDS011;32497;48.936;9.270;2022-11-12T05:32:57;3.43;;;1.23;;
46751;SDS011;32497;48.936;9.270;2022-11-12T05:38:18;1.30;;;0.70;;
46751;SDS011;32497;48.936;9.270;2022-11-12T05:43:37;2.60;;;1.77;;
46751;SDS011;32497;48.936;9.270;2022-11-12T05:48:57;2.40;;;1.47;;
46751;SDS011;32497;48.936;9.270;2022-11-12T05:54:18;2.93;;;1.37;;
46751;SDS011;32497;48.936;9.270;2022-11-12T05:59:37;2.57;;;1.10;;
46751;SDS011;32497;48.936;9.270;2022-11-12T06:04:57;1.63;;;1.00;;
46751;SDS011;32497;48.936;9.270;2022-11-12T06:10:18;3.93;;;1.10;;
46751;SDS011;32497;48.936;9.270;2022-11-12T06:15:42;1.83;;;1.10;;
46751;SDS011;32497;48.936;9.270;2022-11-12T06:21:04;2.63;;;1.20;;
46751;SDS011;32497;48.936;9.270;2022-11-12T06:26:27;2.87;;;1.33;;
46751;SDS011;32497;48.936;9.270;2022-11-12T06:31:47;1.27;;;0.63;;
46751;SDS011;32497;48.936;9.270;2022-11-12T06:37:09;2.30;;;1.07;;
46751;SDS011;32497;48.936;9.270;2022-11-12T06:42:30;1.57;;;0.87;;
46751;SDS011;32497;48.936;9.270;2022-11-12T06:47:50;2.67;;;1.30;;
46751;SDS011;32497;48.936;9.270;2022-11-12T06:53:09;2.20;;;1.60;;
46751;SDS011;32497;48.936;9.270;2022-11-12T06:58:30;2.47;;;1.23;;
46751;SDS011;32497;48.936;9.270;2022-11-12T07:03:51;4.37;;;1.17;;
46751;SDS011;32497;48.936;9.270;2022-11-12T07:09:11;5.67;;;1.30;;
46751;SDS011;32497;48.936;9.270;2022-11-12T07:14:32;3.37;;;1.23;;
46751;SDS011;32497;48.936;9.270;2022-11-12T07:19:51;1.33;;;1.10;;
46751;SDS011;32497;48.936;9.270;2022-11-12T07:25:11;3.47;;;1.17;;
46751;SDS011;32497;48.936;9.270;2022-11-12T07:30:32;2.57;;;1.30;;
46751;SDS011;32497;48.936;9.270;2022-11-12T07:35:58;9.33;;;4.00;;
46751;SDS011;32497;48.936;9.270;2022-11-12T07:41:19;14.23;;;4.80;;
46751;SDS011;32497;48.936;9.270;2022-11-12T07:46:41;8.90;;;4.80;;
46751;SDS011;32497;48.936;9.270;2022-11-12T07:52:01;4.63;;;2.87;;
46751;SDS011;32497;48.936;9.270;2022-11-12T07:57:20;7.13;;;4.00;;
46751;SDS011;32497;48.936;9.270;2022-11-12T08:02:41;4.50;;;1.73;;
46751;SDS011;32497;48.936;9.270;2022-11-12T08:08:00;3.63;;;1.43;;
46751;SDS011;32497;48.936;9.270;2022-11-12T08:13:20;2.87;;;1.37;;
46751;SDS011;32497;48.936;9.270;2022-11-12T08:18:41;3.20;;;1.50;;
46751;SDS011;32497;48.936;9.270;2022-11-12T08:24:01;2.87;;;1.33;;
46751;SDS011;32497;48.936;9.270;2022-11-12T08:29:20;3.70;;;1.40;;
46751;SDS011;32497;48.936;9.270;2022-11-12T08:34:41;5.03;;;2.07;;
46751;SDS011;32497;48.936;9.270;2022-11-12T08:40:00;9.00;;;4.13;;
46751;SDS011;32497;48.936;9.270;2022-11-12T08:45:20;3.90;;;1.97;;
46751;SDS011;32497;48.936;9.270;2022-11-12T08:50:40;2.47;;;1.33;;
46751;SDS011;32497;48.936;9.270;2022-11-12T08:56:00;2.73;;;1.97;;
46751;SDS011;32497;48.936;9.270;2022-11-12T09:01:20;3.43;;;1.23;;
46751;SDS011;32497;48.936;9.270;2022-11-12T09:06:41;2.93;;;1.50;;
46751;SDS011;32497;48.936;9.270;2022-11-12T09:12:00;3.60;;;2.27;;
46751;SDS011;32497;48.936;9.270;2022-11-12T09:17:20;9.63;;;3.20;;
46751;SDS011;32497;48.936;9.270;2022-11-12T09:22:40;4.37;;;2.27;;
46751;SDS011;32497;48.936;9.270;2022-11-12T09:28:04;2.23;;;1.53;;
46751;SDS011;32497;48.936;9.270;2022-11-12T09:33:25;2.67;;;1.90;;
46751;SDS011;32497;48.936;9.270;2022-11-12T09:38:49;3.23;;;1.83;;
46751;SDS011;32497;48.936;9.270;2022-11-12T09:44:09;4.07;;;2.07;;
46751;SDS011;32497;48.936;9.270;2022-11-12T09:49:31;2.33;;;1.53;;
46751;SDS011;32497;48.936;9.270;2022-11-12T09:54:59;5.53;;;2.00;;
46751;SDS011;32497;48.936;9.270;2022-11-12T10:00:31;4.20;;;2.03;;
46751;SDS011;32497;48.936;9.270;2022-11-12T10:05:52;3.63;;;1.90;;
46751;SDS011;32497;48.936;9.270;2022-11-12T10:11:21;3.70;;;1.63;;
46751;SDS011;32497;48.936;9.270;2022-11-12T10:17:00;3.13;;;1.90;;
46751;SDS011;32497;48.936;9.270;2022-11-12T10:22:39;2.77;;;1.97;;
46751;SDS011;32497;48.936;9.270;2022-11-12T10:28:13;3.27;;;1.53;;
46751;SDS011;32497;48.936;9.270;2022-11-12T10:33:41;4.63;;;2.10;;
46751;SDS011;32497;48.936;9.270;2022-11-12T10:39:01;5.00;;;2.03;;
46751;SDS011;32497;48.936;9.270;2022-11-12T10:44:24;6.47;;;1.47;;
46751;SDS011;32497;48.936;9.270;2022-11-12T10:49:47;2.70;;;1.63;;
46751;SDS011;32497;48.936;9.270;2022-11-12T10:55:21;3.53;;;1.70;;
46751;SDS011;32497;48.936;9.270;2022-11-12T11:00:52;3.53;;;1.93;;
46751;SDS011;32497;48.936;9.270;2022-11-12T11:06:18;2.90;;;1.60;;
46751;SDS011;32497;48.936;9.270;2022-11-12T11:11:47;3.10;;;1.77;;
46751;SDS011;32497;48.936;9.270;2022-11-12T11:17:13;4.00;;;1.43;;
46751;SDS011;32497;48.936;9.270;2022-11-12T11:22:37;2.63;;;1.60;;
46751;SDS011;32497;48.936;9.270;2022-11-12T11:28:02;5.57;;;2.03;;
46751;SDS011;32497;48.936;9.270;2022-11-12T11:33:34;7.93;;;2.27;;
46751;SDS011;32497;48.936;9.270;2022-11-12T11:39:05;5.90;;;1.67;;
46751;SDS011;32497;48.936;9.270;2022-11-12T11:44:37;3.90;;;2.07;;
46751;SDS011;32497;48.936;9.270;2022-11-12T11:50:11;3.83;;;2.20;;
46751;SDS011;32497;48.936;9.270;2022-11-12T11:55:42;4.53;;;1.50;;
46751;SDS011;32497;48.936;9.270;2022-11-12T12:01:09;3.67;;;1.90;;
46751;SDS011;32497;48.936;9.270;2022-11-12T12:06:39;2.97;;;1.73;;
46751;SDS011;32497;48.936;9.270;2022-11-12T12:12:08;3.87;;;2.10;;
46751;SDS011;32497;48.936;9.270;2022-11-12T12:17:38;4.10;;;2.00;;
46751;SDS011;32497;48.936;9.270;2022-11-12T12:23:12;4.35;;;2.22;;
46751;SDS011;32497;48.936;9.270;2022-11-12T12:28:43;3.50;;;2.10;;
46751;SDS011;32497;48.936;9.270;2022-11-12T12:34:11;3.63;;;1.65;;
46751;SDS011;32497;48.936;9.270;2022-11-12T12:39:41;3.30;;;1.92;;
46751;SDS011;32497;48.936;9.270;2022-11-12T12:45:16;2.97;;;1.80;;
46751;SDS011;32497;48.936;9.270;2022-11-12T12:50:47;2.95;;;1.75;;
46751;SDS011;32497;48.936;9.270;2022-11-12T13:02:18;3.72;;;2.08;;
46751;SDS011;32497;48.936;9.270;2022-11-12T13:07:39;5.45;;;3.65;;
46751;SDS011;32497;48.936;9.270;2022-11-12T13:13:02;2.70;;;1.70;;
46751;SDS011;32497;48.936;9.270;2022-11-12T13:24:21;3.72;;;2.45;;
46751;SDS011;32497;48.936;9.270;2022-11-12T13:41:55;8.02;;;3.40;;
46751;SDS011;32497;48.936;9.270;2022-11-12T13:47:16;6.32;;;3.03;;
46751;SDS011;32497;48.936;9.270;2022-11-12T13:52:41;5.28;;;3.05;;
46751;SDS011;32497;48.936;9.270;2022-11-12T13:58:00;3.88;;;2.60;;
46751;SDS011;32497;48.936;9.270;2022-11-12T14:03:20;6.40;;;2.47;;
46751;SDS011;32497;48.936;9.270;2022-11-12T14:08:51;4.40;;;2.70;;
46751;SDS011;32497;48.936;9.270;2022-11-12T14:14:28;7.95;;;2.63;;
46751;SDS011;32497;48.936;9.270;2022-11-12T14:20:13;6.90;;;3.30;;
46751;SDS011;32497;48.936;9.270;2022-11-12T14:25:48;5.90;;;2.60;;
46751;SDS011;32497;48.936;9.270;2022-11-12T14:31:11;5.70;;;2.80;;
46751;SDS011;32497;48.936;9.270;2022-11-12T14:36:32;4.93;;;2.87;;
46751;SDS011;32497;48.936;9.270;2022-11-12T14:41:53;6.20;;;3.07;;
46751;SDS011;32497;48.936;9.270;2022-11-12T14:47:15;6.10;;;3.10;;
46751;SDS011;32497;48.936;9.270;2022-11-12T14:52:36;5.63;;;2.63;;
46751;SDS011;32497;48.936;9.270;2022-11-12T14:58:01;5.77;;;2.83;;
46751;SDS011;32497;48.936;9.270;2022-11-12T15:03:23;3.30;;;2.63;;
46751;SDS011;32497;48.936;9.270;2022-11-12T15:08:43;8.53;;;3.20;;
46751;SDS011;32497;48.936;9.270;2022-11-12T15:14:20;4.37;;;2.50;;
46751;SDS011;32497;48.936;9.270;2022-11-12T15:19:41;6.40;;;2.70;;
46751;SDS011;32497;48.936;9.270;2022-11-12T15:30:41;4.33;;;2.23;;
46751;SDS011;32497;48.936;9.270;2022-11-12T15:36:19;6.10;;;2.50;;
46751;SDS011;32497;48.936;9.270;2022-11-12T15:41:41;7.20;;;3.17;;
46751;SDS011;32497;48.936;9.270;2022-11-12T15:47:02;5.63;;;2.57;;
46751;SDS011;32497;48.936;9.270;2022-11-12T15:52:22;3.70;;;2.30;;
46751;SDS011;32497;48.936;9.270;2022-11-12T15:57:41;7.37;;;3.03;;
46751;SDS011;32497;48.936;9.270;2022-11-12T16:03:10;5.33;;;2.70;;
46751;SDS011;32497;48.936;9.270;2022-11-12T16:08:32;5.73;;;2.90;;
46751;SDS011;32497;48.936;9.270;2022-11-12T16:13:51;3.23;;;1.80;;
46751;SDS011;32497;48.936;9.270;2022-11-12T16:19:12;5.30;;;2.83;;
46751;SDS011;32497;48.936;9.270;2022-11-12T16:24:32;4.23;;;2.40;;
46751;SDS011;32497;48.936;9.270;2022-11-12T16:29:52;5.20;;;2.97;;
46751;SDS011;32497;48.936;9.270;2022-11-12T16:35:13;5.73;;;2.70;;
46751;SDS011;32497;48.936;9.270;2022-11-12T16:40:33;6.00;;;2.50;;
46751;SDS011;32497;48.936;9.270;2022-11-12T16:45:52;10.27;;;3.33;;
46751;SDS011;32497;48.936;9.270;2022-11-12T16:51:15;6.77;;;3.10;;
46751;SDS011;32497;48.936;9.270;2022-11-12T16:56:35;6.33;;;3.33;;
46751;SDS011;32497;48.936;9.270;2022-11-12T17:01:55;5.70;;;2.80;;
46751;SDS011;32497;48.936;9.270;2022-11-12T17:07:15;8.70;;;3.23;;
46751;SDS011;32497;48.936;9.270;2022-11-12T17:12:35;7.40;;;3.10;;
46751;SDS011;32497;48.936;9.270;2022-11-12T17:17:55;4.67;;;2.60;;
46751;SDS011;32497;48.936;9.270;2022-11-12T17:23:15;5.47;;;2.63;;
46751;SDS011;32497;48.936;9.270;2022-11-12T17:28:35;3.93;;;2.43;;
46751;SDS011;32497;48.936;9.270;2022-11-12T17:33:55;6.10;;;3.07;;
46751;SDS011;32497;48.936;9.270;2022-11-12T17:39:16;5.97;;;2.67;;
46751;SDS011;32497;48.936;9.270;2022-11-12T17:44:36;5.33;;;2.33;;
46751;SDS011;32497;48.936;9.270;2022-11-12T17:49:56;7.13;;;3.10;;
46751;SDS011;32497;48.936;9.270;2022-11-12T17:55:17;6.27;;;2.77;;
46751;SDS011;32497;48.936;9.270;2022-11-12T18:00:37;5.47;;;3.23;;
46751;SDS011;32497;48.936;9.270;2022-11-12T18:05:57;6.53;;;2.27;;
46751;SDS011;32497;48.936;9.270;2022-11-12T18:11:18;8.73;;;4.43;;
46751;SDS011;32497;48.936;9.270;2022-11-12T18:16:38;6.93;;;3.60;;
46751;SDS011;32497;48.936;9.270;2022-11-12T18:21:58;9.47;;;4.57;;
46751;SDS011;32497;48.936;9.270;2022-11-12T18:27:19;15.00;;;7.83;;
46751;SDS011;32497;48.936;9.270;2022-11-12T18:32:38;14.13;;;5.07;;
46751;SDS011;32497;48.936;9.270;2022-11-12T18:37:58;11.63;;;5.67;;
46751;SDS011;32497;48.936;9.270;2022-11-12T18:43:19;8.00;;;4.20;;
46751;SDS011;32497;48.936;9.270;2022-11-12T18:48:38;7.80;;;3.77;;
46751;SDS011;32497;48.936;9.270;2022-11-12T18:53:58;6.47;;;2.47;;
46751;SDS011;32497;48.936;9.270;2022-11-12T18:59:19;6.60;;;2.90;;
46751;SDS011;32497;48.936;9.270;2022-11-12T19:04:38;3.80;;;2.90;;
46751;SDS011;32497;48.936;9.270;2022-11-12T19:09:57;7.00;;;3.03;;
46751;SDS011;32497;48.936;9.270;2022-11-12T19:15:18;5.80;;;2.87;;
46751;SDS011;32497;48.936;9.270;2022-11-12T19:20:38;3.27;;;2.23;;
46751;SDS011;32497;48.936;9.270;2022-11-12T19:25:58;5.57;;;3.03;;
46751;SDS011;32497;48.936;9.270;2022-11-12T19:31:20;3.67;;;1.97;;
46751;SDS011;32497;48.936;9.270;2022-11-12T19:36:41;4.73;;;2.07;;
46751;SDS011;32497;48.936;9.270;2022-11-12T19:42:01;6.47;;;2.97;;
46751;SDS011;32497;48.936;9.270;2022-11-12T19:47:22;5.87;;;2.87;;
46751;SDS011;32497;48.936;9.270;2022-11-12T19:52:41;5.37;;;3.37;;
46751;SDS011;32497;48.936;9.270;2022-11-12T19:58:01;10.30;;;3.33;;
46751;SDS011;32497;48.936;9.270;2022-11-12T20:03:22;8.27;;;3.77;;
46751;SDS011;32497;48.936;9.270;2022-11-12T20:08:41;15.20;;;5.10;;
46751;SDS011;32497;48.936;9.270;2022-11-12T20:14:01;7.23;;;4.27;;
46751;SDS011;32497;48.936;9.270;2022-11-12T20:19:22;7.43;;;3.70;;
46751;SDS011;32497;48.936;9.270;2022-11-12T20:24:43;8.10;;;3.97;;
46751;SDS011;32497;48.936;9.270;2022-11-12T20:30:03;5.37;;;3.60;;
46751;SDS011;32497;48.936;9.270;2022-11-12T20:35:24;7.20;;;3.37;;
46751;SDS011;32497;48.936;9.270;2022-11-12T20:40:44;8.50;;;3.90;;
46751;SDS011;32497;48.936;9.270;2022-11-12T20:46:04;5.97;;;3.47;;
46751;SDS011;32497;48.936;9.270;2022-11-12T20:51:25;6.70;;;3.00;;
46751;SDS011;32497;48.936;9.270;2022-11-12T20:56:46;5.10;;;3.10;;
46751;SDS011;32497;48.936;9.270;2022-11-12T21:02:05;8.17;;;4.13;;
46751;SDS011;32497;48.936;9.270;2022-11-12T21:07:28;6.97;;;2.90;;
46751;SDS011;32497;48.936;9.270;2022-11-12T21:12:48;8.37;;;3.13;;
46751;SDS011;32497;48.936;9.270;2022-11-12T21:18:07;7.17;;;2.97;;
46751;SDS011;32497;48.936;9.270;2022-11-12T21:23:28;6.27;;;2.60;;
46751;SDS011;32497;48.936;9.270;2022-11-12T21:28:49;4.30;;;2.57;;
46751;SDS011;32497;48.936;9.270;2022-11-12T21:34:09;7.03;;;2.97;;
46751;SDS011;32497;48.936;9.270;2022-11-12T21:39:29;4.87;;;2.77;;
46751;SDS011;32497;48.936;9.270;2022-11-12T21:44:49;6.70;;;3.90;;
46751;SDS011;32497;48.936;9.270;2022-11-12T21:50:08;7.27;;;3.37;;
46751;SDS011;32497;48.936;9.270;2022-11-12T21:55:29;5.83;;;3.13;;
46751;SDS011;32497;48.936;9.270;2022-11-12T22:00:49;7.47;;;3.03;;
46751;SDS011;32497;48.936;9.270;2022-11-12T22:06:08;3.77;;;2.80;;
46751;SDS011;32497;48.936;9.270;2022-11-12T22:11:29;5.03;;;3.40;;
46751;SDS011;32497;48.936;9.270;2022-11-12T22:16:49;5.77;;;2.50;;
46751;SDS011;32497;48.936;9.270;2022-11-12T22:22:09;6.00;;;2.90;;
46751;SDS011;32497;48.936;9.270;2022-11-12T22:27:29;5.10;;;2.80;;
46751;SDS011;32497;48.936;9.270;2022-11-12T22:32:49;6.47;;;2.27;;
46751;SDS011;32497;48.936;9.270;2022-11-12T22:38:08;3.87;;;2.50;;
46751;SDS011;32497;48.936;9.270;2022-11-12T22:43:29;3.67;;;1.73;;
46751;SDS011;32497;48.936;9.270;2022-11-12T22:48:49;3.27;;;1.77;;
46751;SDS011;32497;48.936;9.270;2022-11-12T22:54:09;2.83;;;1.93;;
46751;SDS011;32497;48.936;9.270;2022-11-12T22:59:30;4.60;;;2.60;;
46751;SDS011;32497;48.936;9.270;2022-11-12T23:04:49;4.97;;;2.13;;
46751;SDS011;32497;48.936;9.270;2022-11-12T23:10:09;2.73;;;1.73;;
46751;SDS011;32497;48.936;9.270;2022-11-12T23:15:29;3.73;;;1.83;;
46751;SDS011;32497;48.936;9.270;2022-11-12T23:20:49;5.97;;;2.60;;
46751;SDS011;32497;48.936;9.270;2022-11-12T23:26:10;4.73;;;2.20;;
46751;SDS011;32497;48.936;9.270;2022-11-12T23:31:33;6.67;;;2.97;;
46751;SDS011;32497;48.936;9.270;2022-11-12T23:36:52;4.57;;;2.43;;
46751;SDS011;32497;48.936;9.270;2022-11-12T23:42:11;4.57;;;2.90;;
46751;SDS011;32497;48.936;9.270;2022-11-12T23:47:32;9.50;;;3.90;;
46751;SDS011;32497;48.936;9.270;2022-11-12T23:52:52;5.13;;;2.47;;
46751;SDS011;32497;48.936;9.270;2022-11-12T23:58:11;5.80;;;2.43;;
